Time;durP1;ratioP1;P1;durP2;ratioP2;P2;SDS_P1;SDS_P2;PMS_P1;PMS_P2;Temp;Humidity;BMP_temperature;BMP_pressure;BME280_temperature;BME280_humidity;BME280_pressure;Samples;Min_cycle;Max_cycle;Signal;HPM_P1;HPM_P2
2022/05/19 00:04:00;;;;;;;5.10;1.10;;;;;;;12.57;36.22;100991.88;7632111;32;38210;-81
2022/05/19 00:08:16;;;;;;;7.05;1.52;;;;;;;12.54;35.77;100987.75;7633528;32;37246;-80
2022/05/19 00:12:33;;;;;;;3.00;1.12;;;;;;;12.62;35.12;100988.38;7658432;32;39864;-80
2022/05/19 00:16:49;;;;;;;2.08;1.02;;;;;;;12.74;34.80;100989.87;7652242;32;40636;-80
2022/05/19 00:21:05;;;;;;;1.85;1.27;;;;;;;12.67;35.18;100989.25;7631936;32;38026;-81
2022/05/19 00:25:21;;;;;;;1.60;1.20;;;;;;;12.65;35.20;100985.13;7632049;32;36973;-81
2022/05/19 00:29:37;;;;;;;3.62;1.15;;;;;;;12.53;35.25;100985.25;7632000;32;40065;-78
2022/05/19 00:33:53;;;;;;;2.25;1.00;;;;;;;12.35;35.13;100989.97;7631936;32;39938;-78
2022/05/19 00:38:10;;;;;;;3.10;1.40;;;;;;;12.49;35.08;100989.59;7631607;32;38122;-78
2022/05/19 00:42:44;;;;;;;1.02;1.02;;;;;;;12.49;35.50;100986.88;7631678;32;37126;-80
2022/05/19 00:47:00;;;;;;;1.27;1.17;;;;;;;12.59;35.04;100992.47;7639152;32;39416;-80
2022/05/19 00:51:19;;;;;;;2.62;1.30;;;;;;;12.35;35.97;100998.19;7656407;32;39592;-81
2022/05/19 00:55:40;;;;;;;2.83;1.00;;;;;;;12.44;36.14;100992.28;7656548;32;37144;-81
2022/05/19 01:00:04;;;;;;;1.98;1.20;;;;;;;12.24;37.00;101003.78;7656381;32;37151;-81
2022/05/19 01:04:23;;;;;;;1.12;1.02;;;;;;;12.25;37.11;100997.25;7656486;32;39314;-80
2022/05/19 01:08:47;;;;;;;1.80;1.10;;;;;;;12.45;37.40;100985.72;7654919;32;40739;-78
2022/05/19 01:13:05;;;;;;;1.30;1.10;;;;;;;12.37;38.28;100985.06;7657300;32;38000;-79
2022/05/19 01:17:22;;;;;;;1.25;1.17;;;;;;;11.99;38.70;100984.03;7646664;32;37045;-81
2022/05/19 01:21:38;;;;;;;1.87;1.17;;;;;;;11.94;38.84;100981.22;7629784;32;39588;-81
2022/05/19 01:26:21;;;;;;;1.45;1.23;;;;;;;11.95;38.55;100980.16;7632575;32;39910;-80
2022/05/19 01:30:38;;;;;;;4.50;1.40;;;;;;;12.11;36.72;100983.13;7633959;32;38799;-80
2022/05/19 01:34:54;;;;;;;1.27;1.10;;;;;;;11.90;36.46;100985.53;7633949;32;37979;-80
2022/05/19 01:39:14;;;;;;;1.30;1.20;;;;;;;12.01;37.36;100987.34;7633921;32;39131;-80
2022/05/19 01:43:45;;;;;;;1.92;1.30;;;;;;;11.90;38.33;100987.41;7633892;32;40073;-80
2022/05/19 01:48:31;;;;;;;2.35;1.30;;;;;;;11.69;39.52;100998.03;7634490;32;37906;-81
2022/05/19 01:52:50;;;;;;;1.40;1.30;;;;;;;11.83;39.38;100993.06;7629954;32;37746;-78
2022/05/19 01:57:29;;;;;;;4.20;1.33;;;;;;;11.71;39.78;100986.88;7633830;32;39656;-80
2022/05/19 02:01:51;;;;;;;1.33;1.23;;;;;;;11.54;40.38;100995.06;7630021;32;39918;-80
2022/05/19 02:06:17;;;;;;;1.08;1.08;;;;;;;11.87;38.61;100991.50;7655170;32;38724;-81
2022/05/19 02:10:37;;;;;;;1.20;1.17;;;;;;;11.53;38.81;101010.63;7659965;32;37053;-81
2022/05/19 02:14:59;;;;;;;3.20;1.40;;;;;;;11.54;38.77;101006.84;7659859;32;39872;-80
2022/05/19 02:19:20;;;;;;;1.67;1.25;;;;;;;11.32;40.07;101011.38;7658308;32;39830;-81
2022/05/19 02:23:38;;;;;;;3.17;1.20;;;;;;;11.51;39.47;101011.97;7658543;32;38594;-80
2022/05/19 02:28:02;;;;;;;2.70;1.20;;;;;;;11.49;39.56;101014.09;7659669;32;36924;-81
2022/05/19 02:32:19;;;;;;;2.15;1.10;;;;;;;11.38;39.81;101013.09;7659732;32;39023;-81
2022/05/19 02:36:35;;;;;;;4.05;1.60;;;;;;;11.48;39.46;101010.53;7658786;32;40070;-80
2022/05/19 02:40:51;;;;;;;3.25;1.20;;;;;;;11.26;40.87;101016.75;7659337;32;37926;-81
2022/05/19 02:45:09;;;;;;;2.25;1.25;;;;;;;11.40;41.17;101013.69;7659398;32;37815;-81
2022/05/19 02:49:25;;;;;;;1.52;1.42;;;;;;;11.26;42.41;101022.22;7634799;32;39623;-80
2022/05/19 02:53:41;;;;;;;2.90;1.33;;;;;;;11.26;41.92;101022.22;7632488;32;40160;-80
2022/05/19 02:57:57;;;;;;;1.80;1.30;;;;;;;10.97;43.38;101026.03;7632960;32;38852;-81
2022/05/19 03:02:13;;;;;;;1.58;1.20;;;;;;;11.14;43.39;101024.19;7645915;32;37429;-81
2022/05/19 03:06:29;;;;;;;2.22;1.30;;;;;;;11.09;43.79;101021.34;7659231;32;39437;-80
2022/05/19 03:10:45;;;;;;;3.20;1.30;;;;;;;11.09;43.27;101024.09;7657110;32;39933;-80
2022/05/19 03:15:01;;;;;;;1.58;1.30;;;;;;;11.35;42.45;101032.72;7657962;32;37790;-81
2022/05/19 03:19:18;;;;;;;1.37;1.27;;;;;;;11.42;41.98;101042.41;7657572;32;36986;-81
2022/05/19 03:23:34;;;;;;;1.50;1.40;;;;;;;11.44;42.69;101031.25;7659084;32;39454;-80
2022/05/19 03:27:50;;;;;;;3.80;1.50;;;;;;;11.45;43.13;101024.69;7658837;32;40026;-81
2022/05/19 03:32:07;;;;;;;1.20;1.10;;;;;;;11.30;42.87;101032.63;7658855;32;37925;-80
2022/05/19 03:36:23;;;;;;;2.28;1.40;;;;;;;11.04;43.00;101045.81;7659049;32;36801;-81
2022/05/19 03:40:39;;;;;;;2.50;1.30;;;;;;;11.01;44.25;101054.50;7658691;32;39306;-80
2022/05/19 03:44:55;;;;;;;2.25;1.42;;;;;;;10.83;45.05;101052.75;7657327;32;39996;-81
2022/05/19 03:49:13;;;;;;;3.22;1.60;;;;;;;10.93;45.27;101054.88;7658290;32;38151;-81
2022/05/19 03:53:29;;;;;;;2.75;1.40;;;;;;;10.97;47.38;101062.34;7658535;32;38018;-80
2022/05/19 03:57:46;;;;;;;2.47;1.50;;;;;;;11.17;46.24;101061.88;7657344;32;39487;-80
2022/05/19 04:02:03;;;;;;;2.55;1.40;;;;;;;11.18;46.95;101062.72;7658511;32;40127;-79
2022/05/19 04:06:35;;;;;;;3.47;1.60;;;;;;;11.06;47.94;101062.78;7658599;32;38078;-81
2022/05/19 04:10:51;;;;;;;7.03;2.10;;;;;;;11.03;48.71;101060.53;7658531;32;37134;-81
2022/05/19 04:15:08;;;;;;;2.12;1.70;;;;;;;11.28;48.18;101055.53;7654451;32;40231;-82
2022/05/19 04:19:24;;;;;;;1.90;1.30;;;;;;;11.52;47.13;101058.16;7632002;32;40972;-81
2022/05/19 04:23:40;;;;;;;1.30;1.20;;;;;;;11.34;46.99;101061.09;7631963;32;37850;-81
2022/05/19 04:27:57;;;;;;;2.45;1.60;;;;;;;11.50;45.94;101062.19;7632101;32;38579;-80
2022/05/19 04:32:15;;;;;;;3.12;1.80;;;;;;;11.50;45.74;101065.72;7632045;32;39490;-82
2022/05/19 04:36:32;;;;;;;3.33;1.87;;;;;;;11.42;46.06;101066.16;7631917;32;38724;-79
2022/05/19 04:40:49;;;;;;;3.47;1.80;;;;;;;11.56;45.19;101059.31;7631723;32;38120;-82
2022/05/19 04:45:07;;;;;;;4.65;1.90;;;;;;;11.84;44.53;101071.22;7634684;32;37071;-78
2022/05/19 04:49:23;;;;;;;3.17;1.90;;;;;;;11.62;45.17;101062.94;7657950;32;39393;-81
2022/05/19 04:53:39;;;;;;;4.40;2.10;;;;;;;11.85;44.95;101067.44;7657737;32;39747;-81
2022/05/19 04:57:55;;;;;;;5.93;2.35;;;;;;;12.03;45.44;101067.16;7649394;32;37814;-81
2022/05/19 05:02:11;;;;;;;9.68;2.40;;;;;;;12.06;45.94;101067.78;7630450;32;37263;-82
2022/05/19 05:06:28;;;;;;;14.63;2.20;;;;;;;12.37;45.31;101069.84;7631250;32;39478;-80
2022/05/19 05:10:44;;;;;;;3.42;1.52;;;;;;;12.62;44.77;101076.72;7630961;32;40031;-81
2022/05/19 05:15:00;;;;;;;1.55;1.35;;;;;;;12.73;44.46;101069.50;7634714;32;37992;-80
2022/05/19 05:19:19;;;;;;;5.35;1.52;;;;;;;13.06;42.78;101073.97;7657022;32;36983;-80
2022/05/19 05:23:35;;;;;;;1.45;1.30;;;;;;;12.98;42.62;101079.09;7657285;32;39874;-81
2022/05/19 05:27:51;;;;;;;2.53;1.40;;;;;;;12.91;42.70;101082.03;7656985;32;40614;-81
2022/05/19 05:32:07;;;;;;;1.45;1.20;;;;;;;13.39;41.22;101083.12;7656844;32;38544;-80
2022/05/19 05:36:23;;;;;;;1.65;1.25;;;;;;;13.73;40.71;101088.34;7655603;32;36990;-80
2022/05/19 05:40:39;;;;;;;3.85;1.50;;;;;;;13.88;40.88;101088.47;7649495;32;40006;-76
2022/05/19 05:44:55;;;;;;;1.80;1.10;;;;;;;13.81;42.80;101084.28;7636835;32;39885;-77
2022/05/19 05:49:14;;;;;;;4.40;1.25;;;;;;;13.79;43.85;101081.81;7643328;32;38124;-79
2022/05/19 05:53:30;;;;;;;11.30;1.48;;;;;;;13.39;44.37;101088.59;7646298;32;37241;-79
2022/05/19 05:57:46;;;;;;;3.75;1.50;;;;;;;13.66;44.77;101090.47;7647224;32;40040;-79
2022/05/19 06:02:02;;;;;;;9.93;1.55;;;;;;;13.97;43.87;101083.34;7633058;32;39908;-77
2022/05/19 06:06:18;;;;;;;1.42;1.10;;;;;;;14.33;45.09;101093.72;7646080;32;38707;-84
2022/05/19 06:10:35;;;;;;;4.18;1.30;;;;;;;14.65;45.05;101080.75;7646730;32;37604;-83
2022/05/19 06:14:53;;;;;;;2.00;1.25;;;;;;;15.00;41.43;101082.00;7655577;32;39280;-78
2022/05/19 06:19:09;;;;;;;1.95;1.25;;;;;;;15.13;41.15;101077.06;7646480;32;40598;-78
2022/05/19 06:23:25;;;;;;;1.67;1.12;;;;;;;15.15;39.36;101072.13;7633022;32;38531;-79
2022/05/19 06:27:41;;;;;;;2.92;1.30;;;;;;;15.47;36.68;101082.91;7633319;32;37014;-79
2022/05/19 06:31:58;;;;;;;2.22;1.23;;;;;;;15.69;37.85;101077.13;7632998;32;39361;-77
2022/05/19 06:36:15;;;;;;;1.20;1.10;;;;;;;15.84;37.59;101083.78;7632799;32;39716;-79
2022/05/19 06:40:33;;;;;;;7.43;1.05;;;;;;;16.46;37.03;101079.81;7632742;32;38701;-77
2022/05/19 06:44:50;;;;;;;2.72;1.30;;;;;;;16.61;36.77;101083.59;7631797;32;37708;-80
2022/05/19 06:49:07;;;;;;;1.87;1.10;;;;;;;16.51;36.82;101088.03;7632930;32;39283;-78
2022/05/19 06:53:23;;;;;;;3.72;1.20;;;;;;;17.19;37.00;101074.81;7632704;32;39875;-78
2022/05/19 06:57:39;;;;;;;2.05;1.27;;;;;;;17.12;35.82;101079.84;7634533;32;37661;-78
2022/05/19 07:01:55;;;;;;;3.97;1.20;;;;;;;17.15;36.28;101091.09;7652940;32;37812;-78
2022/05/19 07:06:12;;;;;;;4.87;1.40;;;;;;;17.61;36.17;101079.78;7635952;32;39334;-79
2022/05/19 07:10:28;;;;;;;4.40;1.60;;;;;;;17.90;34.76;101083.69;7632377;32;40551;-78
2022/05/19 07:14:44;;;;;;;2.62;1.27;;;;;;;17.87;34.52;101082.34;7650698;32;38026;-75
2022/05/19 07:23:36;;;;;;;3.22;1.40;;;;;;;18.27;34.69;101077.53;7658395;32;39161;-78
2022/05/19 07:27:52;;;;;;;6.25;1.62;;;;;;;18.60;34.07;101072.22;7658803;32;39998;-77
2022/05/19 07:32:08;;;;;;;2.25;1.40;;;;;;;18.61;33.82;101075.78;7658737;32;38069;-78
2022/05/19 07:36:25;;;;;;;4.55;1.42;;;;;;;18.64;33.10;101067.72;7658829;32;36810;-78
2022/05/19 07:40:45;;;;;;;3.35;1.70;;;;;;;19.24;33.35;101061.69;7648724;32;39304;-78
2022/05/19 07:45:02;;;;;;;4.87;1.67;;;;;;;19.55;31.07;101068.72;7650010;32;40238;-78
2022/05/19 07:49:18;;;;;;;2.95;2.05;;;;;;;19.66;30.93;101062.72;7657157;32;37860;-78
2022/05/19 07:53:34;;;;;;;3.30;1.50;;;;;;;19.93;28.21;101055.62;7657822;32;36959;-78
2022/05/19 07:57:50;;;;;;;3.83;1.20;;;;;;;20.52;27.64;101049.53;7658353;32;39273;-78
2022/05/19 08:02:07;;;;;;;2.15;1.10;;;;;;;20.80;25.11;101045.66;7638780;32;39908;-77
2022/05/19 08:06:24;;;;;;;5.07;1.30;;;;;;;21.00;24.14;101043.53;7639606;32;37966;-78
2022/05/19 08:10:40;;;;;;;5.12;1.37;;;;;;;21.10;22.78;101045.28;7653559;32;37874;-78
2022/05/19 08:19:31;;;;;;;4.22;1.10;;;;;;;21.32;20.34;101050.84;7632297;32;39731;-71
2022/05/19 08:23:50;;;;;;;6.05;1.35;;;;;;;21.62;19.94;101054.03;7631851;32;37676;-74
2022/05/19 08:28:13;;;;;;;5.25;1.50;;;;;;;22.09;20.72;101046.16;7642083;32;36972;-73
2022/05/19 08:32:30;;;;;;;2.58;1.10;;;;;;;22.49;20.74;101045.34;7657917;32;39455;-74
2022/05/19 08:36:46;;;;;;;6.80;1.30;;;;;;;22.34;19.44;101043.03;7656690;32;39878;-77
2022/05/19 08:41:16;;;;;;;1.30;0.95;;;;;;;22.41;19.91;101044.19;7656440;32;39249;-75
2022/05/19 08:45:39;;;;;;;2.67;1.50;;;;;;;22.04;19.50;101040.75;7645998;32;37170;-77
2022/05/19 08:50:20;;;;;;;3.67;1.20;;;;;;;22.48;17.25;101041.75;7657658;32;39296;-75
2022/05/19 08:54:38;;;;;;;4.28;1.55;;;;;;;22.29;17.52;101032.88;7657585;32;39907;-74
2022/05/19 08:59:03;;;;;;;20.58;1.85;;;;;;;22.86;17.96;101040.37;7655192;32;37762;-75
2022/05/19 09:03:37;;;;;;;4.82;1.62;;;;;;;22.19;16.73;101044.22;7631230;32;37157;-75
2022/05/19 09:08:18;;;;;;;6.82;1.65;;;;;;;22.86;16.76;101040.37;7631184;32;39436;-74
2022/05/19 09:12:37;;;;;;;4.47;1.60;;;;;;;22.01;17.09;101040.53;7633984;32;39668;-76
2022/05/19 09:17:01;;;;;;;4.75;1.52;;;;;;;22.52;17.29;101030.81;7653835;32;37764;-75
2022/05/19 09:21:18;;;;;;;3.05;1.77;;;;;;;22.98;17.13;101036.97;7656034;32;37867;-75
2022/05/19 09:25:37;;;;;;;3.08;1.70;;;;;;;23.14;16.12;101027.00;7656909;32;39333;-75
2022/05/19 09:29:55;;;;;;;4.03;1.67;;;;;;;22.59;16.96;101019.22;7657123;32;40629;-74
2022/05/19 09:34:12;;;;;;;2.78;1.60;;;;;;;22.77;16.22;101026.47;7654780;32;38874;-81
2022/05/19 09:38:37;;;;;;;8.75;1.73;;;;;;;23.25;15.65;101013.63;7642797;32;37554;-79
2022/05/19 09:43:08;;;;;;;7.00;1.70;;;;;;;23.13;16.92;101016.22;7641738;32;39340;-77
2022/05/19 09:47:35;;;;;;;11.18;3.08;;;;;;;23.09;17.31;101020.81;7632268;32;40661;-75
2022/05/19 09:51:51;;;;;;;2.20;1.20;;;;;;;23.15;15.93;101009.19;7633549;32;37724;-75
2022/05/19 09:56:15;;;;;;;3.67;1.50;;;;;;;23.33;15.65;100998.84;7654304;32;37140;-74
2022/05/19 10:00:44;;;;;;;;;;;;;;;23.79;14.63;100991.72;7660710;32;40012;-74
2022/05/19 10:05:05;;;;;;;3.90;1.30;;;;;;;24.06;15.27;100981.34;7642646;32;42255;-80
2022/05/19 10:09:29;;;;;;;4.50;1.50;;;;;;;24.32;16.44;100981.22;7646604;32;37851;-77
2022/05/19 10:13:54;;;;;;;1.17;1.08;;;;;;;24.53;16.02;100977.66;7638980;32;37452;-76
2022/05/19 10:18:21;;;;;;;8.90;1.52;;;;;;;24.57;15.40;100967.47;7634229;32;39327;-78
2022/05/19 10:23:02;;;;;;;2.28;1.45;;;;;;;24.52;14.43;100967.66;7633392;32;39724;-77
2022/05/19 10:33:16;;;;;;;5.25;1.30;;;;;;;25.08;14.77;100965.44;7629290;32;37572;-77
2022/05/19 10:37:56;;;;;;;2.35;1.33;;;;;;;25.15;14.64;100947.31;7631129;32;40048;-77
2022/05/19 10:42:21;;;;;;;2.15;1.20;;;;;;;25.62;14.91;100956.22;7644039;32;40120;-82
2022/05/19 10:46:56;;;;;;;1.90;1.12;;;;;;;25.23;14.33;100949.22;7649272;32;38828;-76
2022/05/19 10:51:14;;;;;;;2.92;1.27;;;;;;;25.21;13.87;100934.81;7653885;32;36769;-76
2022/05/19 10:55:37;;;;;;;1.85;0.93;;;;;;;25.95;14.29;100935.81;7631765;32;39422;-75
2022/05/19 11:00:22;;;;;;;;;;;;;;;24.96;13.95;100926.34;7632622;32;40632;-76
2022/05/19 11:04:59;;;;;;;2.45;1.10;;;;;;;25.11;14.68;100919.28;7641088;32;37999;-76
2022/05/19 11:10:00;;;;;;;1.65;0.73;;;;;;;25.25;14.43;100919.84;7659253;32;37082;-76
2022/05/19 11:14:57;;;;;;;6.05;1.33;;;;;;;25.12;14.32;100915.34;7638048;32;40110;-76
2022/05/19 11:19:18;;;;;;;4.22;0.98;;;;;;;25.52;14.64;100912.00;7595755;32;40948;-75
2022/05/19 11:23:47;;;;;;;2.10;0.98;;;;;;;25.14;14.18;100892.69;7609222;32;37750;-77
2022/05/19 11:28:49;;;;;;;1.40;0.98;;;;;;;25.62;15.30;100894.00;7650677;32;37738;-78
2022/05/19 11:33:09;;;;;;;0.88;0.80;;;;;;;26.26;13.32;100894.47;7653962;32;39222;-73
2022/05/19 11:37:26;;;;;;;2.75;1.12;;;;;;;25.48;13.11;100892.34;7642368;32;39770;-82
2022/05/19 11:41:45;;;;;;;2.53;0.95;;;;;;;25.33;13.82;100887.41;7643263;32;37749;-75
2022/05/19 11:46:25;;;;;;;5.57;1.20;;;;;;;25.59;12.88;100872.34;7632206;32;36279;-75
2022/05/19 11:55:39;;;;;;;2.37;1.30;;;;;;;26.17;14.44;100858.28;7604229;32;39917;-75
2022/05/19 11:59:58;;;;;;;5.37;1.75;;;;;;;26.70;15.50;100849.84;7632093;32;38830;-76
2022/05/19 12:04:27;;;;;;;6.10;1.27;;;;;;;27.25;12.74;100848.19;7632376;32;36085;-76
2022/05/19 12:09:18;;;;;;;2.75;1.02;;;;;;;27.51;12.86;100842.09;7626102;32;39336;-75
2022/05/19 12:13:45;;;;;;;7.90;1.48;;;;;;;28.00;13.10;100835.25;7616766;32;40853;-74
2022/05/19 12:18:18;;;;;;;1.90;1.10;;;;;;;27.91;14.03;100843.87;7628928;32;37680;-75
2022/05/19 12:22:36;;;;;;;3.03;1.15;;;;;;;27.44;13.55;100841.06;7630290;32;36999;-75
2022/05/19 12:27:09;;;;;;;2.25;1.00;;;;;;;27.09;12.59;100831.34;7632092;32;38291;-76
2022/05/19 12:36:23;;;;;;;21.62;2.58;;;;;;;26.90;13.11;100826.47;7631883;32;38103;-76
2022/05/19 12:40:57;;;;;;;3.58;1.10;;;;;;;28.59;13.37;100810.09;7630793;32;37836;-75
2022/05/19 12:45:27;;;;;;;6.10;1.27;;;;;;;28.05;11.98;100808.94;7631805;32;38483;-75
2022/05/19 12:50:08;;;;;;;2.33;1.20;;;;;;;28.19;11.82;100811.25;7630655;32;40801;-76
2022/05/19 12:54:31;;;;;;;5.62;1.02;;;;;;;28.23;12.34;100803.72;7631429;32;37965;-76
2022/05/19 12:58:49;;;;;;;;;;;;;;;28.27;11.12;100804.62;7631995;32;36907;-75
2022/05/19 13:03:16;;;;;;;15.40;1.42;;;;;;;28.75;10.36;100796.81;7631618;32;39416;-75
2022/05/19 13:07:45;;;;;;;3.03;1.10;;;;;;;28.66;12.25;100787.78;7631345;32;39691;-75
2022/05/19 13:12:17;;;;;;;6.75;1.12;;;;;;;28.03;11.02;100786.88;7631112;32;37882;-76
2022/05/19 13:16:51;;;;;;;1.87;0.90;;;;;;;29.09;12.11;100782.16;7630215;32;37311;-76
2022/05/19 13:21:23;;;;;;;3.25;1.15;;;;;;;29.48;11.02;100766.00;7634759;32;40165;-75
2022/05/19 13:25:46;;;;;;;1.00;0.90;;;;;;;29.39;11.17;100776.69;7639677;32;39987;-75
2022/05/19 13:30:23;;;;;;;2.45;0.85;;;;;;;29.70;10.64;100766.31;7639594;32;37714;-75
2022/05/19 13:34:49;;;;;;;9.50;1.10;;;;;;;29.00;10.60;100759.97;7639511;32;37784;-76
2022/05/19 13:39:10;;;;;;;7.75;3.22;;;;;;;28.47;11.63;100747.34;7639438;32;39363;-75
2022/05/19 13:43:34;;;;;;;5.43;2.80;;;;;;;29.39;10.93;100752.22;7639194;32;40671;-76
2022/05/19 13:47:51;;;;;;;3.30;1.20;;;;;;;28.79;10.85;100746.38;7639026;32;37901;-76
2022/05/19 13:52:09;;;;;;;2.83;1.05;;;;;;;29.01;10.51;100741.91;7638934;32;36848;-76
2022/05/19 13:56:37;;;;;;;11.23;1.20;;;;;;;29.48;10.77;100737.09;7638894;32;40125;-76
2022/05/19 14:00:54;;;;;;;5.62;2.78;;;;;;;29.68;11.37;100734.97;7638838;32;39893;-75
2022/05/19 14:05:40;;;;;;;10.95;2.75;;;;;;;29.07;10.92;100731.22;7637452;32;38097;-76
2022/05/19 14:10:13;;;;;;;3.08;1.10;;;;;;;29.67;10.78;100724.94;7634394;32;36669;-76
2022/05/19 14:14:30;;;;;;;45.58;20.55;;;;;;;29.56;10.87;100725.59;7637280;32;39380;-75
2022/05/19 14:19:18;;;;;;;7.72;3.70;;;;;;;29.28;12.38;100722.34;7637215;32;40327;-76
2022/05/19 14:23:59;;;;;;;7.00;3.60;;;;;;;29.00;12.49;100720.66;7638140;32;38849;-76
2022/05/19 14:28:35;;;;;;;14.30;4.78;;;;;;;29.08;13.86;100718.78;7638212;32;37771;-76
2022/05/19 14:32:53;;;;;;;10.07;6.25;;;;;;;28.67;11.09;100710.88;7635585;32;39064;-76
2022/05/19 14:37:16;;;;;;;17.90;8.57;;;;;;;28.61;12.91;100706.75;7633176;32;39746;-75
2022/05/19 14:46:13;;;;;;;17.30;5.32;;;;;;;28.59;11.61;100698.72;7632081;32;37384;-76
2022/05/19 14:50:34;;;;;;;2.97;1.17;;;;;;;28.96;12.17;100706.56;7631930;32;40176;-77
2022/05/19 14:54:50;;;;;;;3.42;1.40;;;;;;;29.21;11.60;100707.00;7632516;32;39991;-76
2022/05/19 14:59:17;;;;;;;8.05;1.20;;;;;;;29.34;11.69;100704.81;7632747;32;38749;-77
2022/05/19 15:03:34;;;;;;;2.20;1.25;;;;;;;29.85;11.95;100695.09;7631583;32;37717;-77
2022/05/19 15:07:54;;;;;;;1.58;0.90;;;;;;;29.79;10.87;100696.62;7632830;32;40145;-77
2022/05/19 15:12:13;;;;;;;8.52;2.80;;;;;;;30.15;10.98;100680.22;7632620;32;39854;-77
2022/05/19 15:16:29;;;;;;;10.25;3.50;;;;;;;30.61;10.41;100674.25;7632599;32;37788;-79
2022/05/19 15:20:46;;;;;;;1.60;1.20;;;;;;;29.98;11.11;100676.00;7632582;32;37367;-83
2022/05/19 15:25:04;;;;;;;4.10;1.60;;;;;;;30.00;10.81;100670.00;7632426;32;40478;-82
2022/05/19 15:29:20;;;;;;;15.82;7.00;;;;;;;29.63;11.22;100665.06;7632454;32;40085;-77
2022/05/19 15:33:36;;;;;;;101.03;40.50;;;;;;;29.51;11.41;100658.50;7632266;32;38035;-77
2022/05/19 15:37:52;;;;;;;20.77;8.30;;;;;;;29.50;12.54;100664.50;7631059;32;37252;-78
2022/05/19 15:42:08;;;;;;;5.55;2.10;;;;;;;30.07;12.28;100656.81;7632253;32;39314;-77
2022/05/19 15:46:25;;;;;;;3.10;1.50;;;;;;;29.92;11.57;100649.41;7631722;32;40723;-77
2022/05/19 15:50:44;;;;;;;4.82;1.62;;;;;;;29.83;11.64;100652.50;7639845;32;37924;-77
2022/05/19 15:55:00;;;;;;;29.30;12.25;;;;;;;29.54;11.26;100652.09;7655352;32;37037;-77
2022/05/19 15:59:17;;;;;;;23.62;9.65;;;;;;;29.30;11.46;100650.56;7655287;32;39129;-77
2022/05/19 16:03:35;;;;;;;7.68;2.72;;;;;;;29.12;12.20;100641.06;7657562;32;39960;-76
2022/05/19 16:07:52;;;;;;;5.45;1.48;;;;;;;28.62;11.61;100635.47;7657938;32;37889;-76
2022/05/19 16:12:16;;;;;;;11.52;4.03;;;;;;;28.91;11.23;100642.34;7657515;32;37997;-76
2022/05/19 16:16:32;;;;;;;3.10;1.60;;;;;;;28.73;12.39;100636.44;7658295;32;39367;-77
2022/05/19 16:20:49;;;;;;;3.65;1.50;;;;;;;28.86;10.86;100627.84;7656396;32;39772;-77
2022/05/19 16:25:08;;;;;;;8.38;2.03;;;;;;;28.46;11.01;100627.94;7656766;32;37451;-77
2022/05/19 16:29:24;;;;;;;6.25;2.12;;;;;;;28.45;11.52;100637.53;7657736;32;37769;-76
2022/05/19 16:33:41;;;;;;;4.22;1.80;;;;;;;28.74;11.61;100624.03;7657426;32;39985;-77
2022/05/19 16:37:59;;;;;;;46.85;16.60;;;;;;;28.54;11.34;100637.28;7657981;32;39735;-76
2022/05/19 16:42:16;;;;;;;33.08;14.20;;;;;;;28.35;12.45;100624.13;7656836;32;37901;-75
2022/05/19 16:46:32;;;;;;;12.48;3.60;;;;;;;27.86;12.27;100619.19;7657667;32;37166;-76
2022/05/19 16:50:48;;;;;;;18.60;7.35;;;;;;;28.34;12.45;100616.91;7655821;32;39323;-75
2022/05/19 16:59:40;;;;;;;14.60;4.72;;;;;;;27.81;13.67;100613.87;7656364;32;37925;-76
2022/05/19 17:03:56;;;;;;;13.27;4.70;;;;;;;27.35;13.72;100620.94;7656756;32;37077;-76
2022/05/19 17:08:13;;;;;;;6.40;2.37;;;;;;;27.00;13.88;100615.28;7657521;32;39315;-77
2022/05/19 17:12:30;;;;;;;5.80;1.80;;;;;;;26.54;13.57;100621.31;7655386;32;40710;-76
2022/05/19 17:16:46;;;;;;;11.27;2.90;;;;;;;26.82;14.35;100620.47;7657098;32;37650;-76
2022/05/19 17:21:02;;;;;;;3.00;1.48;;;;;;;26.71;15.08;100622.97;7655429;32;37024;-76
2022/05/19 17:25:20;;;;;;;3.17;1.50;;;;;;;27.09;14.44;100615.09;7656768;32;39819;-77
2022/05/19 17:29:37;;;;;;;1.67;1.20;;;;;;;27.08;14.74;100610.66;7655665;32;39697;-76
2022/05/19 17:33:53;;;;;;;3.53;1.40;;;;;;;26.99;14.35;100613.66;7655997;32;37831;-76
2022/05/19 17:38:09;;;;;;;2.83;1.65;;;;;;;26.79;14.49;100619.19;7656671;32;37248;-78
2022/05/19 17:42:27;;;;;;;9.90;3.90;;;;;;;26.47;15.39;100609.16;7655206;32;39351;-78
2022/05/19 17:46:43;;;;;;;3.42;2.00;;;;;;;26.26;15.72;100618.59;7656485;32;40655;-79
2022/05/19 17:51:00;;;;;;;4.55;2.12;;;;;;;26.31;16.05;100623.13;7656092;32;38795;-80
2022/05/19 17:55:16;;;;;;;8.52;3.05;;;;;;;26.11;17.11;100616.59;7656296;32;37866;-79
2022/05/19 17:59:32;;;;;;;6.62;2.78;;;;;;;26.00;17.98;100621.88;7656549;32;37117;-80
2022/05/19 18:03:50;;;;;;;12.63;5.43;;;;;;;25.83;18.22;100620.19;7654864;32;40795;-81
2022/05/19 18:08:08;;;;;;;29.90;9.55;;;;;;;25.54;18.69;100627.72;7656505;32;38099;-81
2022/05/19 18:12:24;;;;;;;33.35;13.02;;;;;;;25.11;19.53;100637.53;7659645;32;36542;-80
2022/05/19 18:21:15;;;;;;;18.27;6.82;;;;;;;24.70;19.96;100631.06;7657407;32;40418;-80
2022/05/19 18:25:32;;;;;;;7.28;3.20;;;;;;;24.37;20.45;100631.91;7659491;32;37973;-79
2022/05/19 18:29:48;;;;;;;12.23;2.45;;;;;;;24.20;20.55;100624.53;7658790;32;37186;-80
2022/05/19 18:34:04;;;;;;;6.82;1.95;;;;;;;23.76;21.54;100633.25;7659600;32;39084;-80
2022/05/19 18:38:22;;;;;;;3.78;1.75;;;;;;;23.70;21.63;100636.59;7659492;32;39916;-80
2022/05/19 18:47:14;;;;;;;3.62;1.62;;;;;;;22.92;23.34;100632.34;7659514;32;36837;-79
2022/05/19 18:51:30;;;;;;;5.95;1.60;;;;;;;22.66;23.73;100636.87;7658963;32;40259;-79
2022/05/19 18:55:46;;;;;;;5.70;1.87;;;;;;;22.32;23.83;100646.16;7659284;32;40306;-80
2022/05/19 19:00:04;;;;;;;4.70;1.50;;;;;;;22.32;24.26;100646.16;7647825;32;38668;-79
2022/05/19 19:04:20;;;;;;;7.12;1.83;;;;;;;21.99;25.11;100651.38;7653133;32;37390;-79
2022/05/19 19:08:38;;;;;;;5.15;1.58;;;;;;;21.62;25.94;100648.13;7657466;32;40196;-79
2022/05/19 19:12:54;;;;;;;4.75;1.55;;;;;;;21.39;25.83;100651.81;7638257;32;39976;-79
2022/05/19 19:17:10;;;;;;;2.67;1.40;;;;;;;21.37;25.75;100648.56;7656725;32;38678;-78
2022/05/19 19:21:32;;;;;;;4.25;1.67;;;;;;;21.14;25.39;100656.16;7640716;32;38161;-78
2022/05/19 19:25:49;;;;;;;3.28;1.67;;;;;;;21.08;25.78;100659.44;7632686;32;40104;-79
2022/05/19 19:30:07;;;;;;;5.97;1.73;;;;;;;20.94;26.01;100651.22;7619311;32;40262;-77
2022/05/19 19:34:23;;;;;;;4.50;2.05;;;;;;;20.99;26.47;100656.63;7632510;32;37777;-77
2022/05/19 19:38:39;;;;;;;5.57;2.20;;;;;;;20.87;26.40;100640.63;7631475;32;36958;-76
2022/05/19 19:42:55;;;;;;;7.30;2.20;;;;;;;20.71;25.83;100642.16;7632275;32;39649;-77
2022/05/19 19:47:12;;;;;;;8.38;2.35;;;;;;;20.57;26.67;100653.31;7631150;32;40735;-78
2022/05/19 19:56:03;;;;;;;4.68;1.80;;;;;;;20.32;27.73;100669.47;7639909;32;37731;-76
2022/05/19 20:00:23;;;;;;;5.15;2.40;;;;;;;19.76;28.27;100679.12;7642750;32;37170;-77
2022/05/19 20:04:39;;;;;;;4.97;2.58;;;;;;;19.65;29.48;100667.47;7636126;32;39689;-78
2022/05/19 20:08:55;;;;;;;5.20;2.30;;;;;;;19.32;31.87;100668.44;7648566;32;37756;-77
2022/05/19 20:13:11;;;;;;;3.95;2.05;;;;;;;19.40;32.00;100661.34;7653942;32;37685;-77
2022/05/19 20:17:30;;;;;;;4.72;2.53;;;;;;;19.17;32.57;100665.19;7633463;32;39257;-78
2022/05/19 20:21:47;;;;;;;4.70;1.77;;;;;;;19.11;31.30;100664.50;7634504;32;40101;-77
2022/05/19 20:26:04;;;;;;;5.97;1.90;;;;;;;19.08;31.03;100662.34;7656500;32;38753;-77
2022/05/19 20:30:20;;;;;;;3.92;2.08;;;;;;;18.92;31.41;100656.28;7642315;32;37061;-77
2022/05/19 20:34:36;;;;;;;3.25;2.03;;;;;;;18.81;31.68;100663.13;7644461;32;40024;-77
2022/05/19 20:38:53;;;;;;;4.40;2.30;;;;;;;18.56;32.35;100666.06;7644397;32;39712;-78
2022/05/19 20:43:09;;;;;;;4.82;1.92;;;;;;;18.47;33.04;100672.56;7640939;32;38557;-78
2022/05/19 20:47:26;;;;;;;4.10;2.08;;;;;;;18.48;33.18;100674.22;7642163;32;36607;-77
2022/05/19 20:51:42;;;;;;;5.80;2.00;;;;;;;18.27;32.95;100674.56;7645696;32;39323;-78
2022/05/19 20:55:59;;;;;;;7.60;2.28;;;;;;;18.16;32.92;100667.56;7633187;32;40811;-78
2022/05/19 21:00:16;;;;;;;3.83;1.92;;;;;;;18.09;32.67;100667.97;7645018;32;38750;-78